Time;durP1;ratioP1;P1;durP2;ratioP2;P2;SDS_P1;SDS_P2;PMS_P1;PMS_P2;Temp;Humidity;BMP_temperature;BMP_pressure;BME280_temperature;BME280_humidity;BME280_pressure;Samples;Min_cycle;Max_cycle;Signal;HPM_P1;HPM_P2
2024/01/26 00:00:13;;;;;;;;;;;;;;;-10.08;50.80;96974.63;6345080;28;20077;-68
2024/01/26 00:03:15;;;;;;;;;;;;;;;-10.03;50.60;96972.19;6344883;28;19934;-67
2024/01/26 00:06:16;;;;;;;;;;;;;;;-10.00;50.34;96973.06;6344037;28;19924;-67
2024/01/26 00:09:17;;;;;;;;;;;;;;;-9.94;50.18;96973.19;6344967;28;19923;-67
2024/01/26 00:12:20;;;;;;;;;;;;;;;-9.90;50.21;96978.34;6345013;28;19942;-68
2024/01/26 00:15:21;;;;;;;;;;;;;;;-9.96;50.04;96972.31;6343938;28;19969;-68
2024/01/26 00:18:25;;;;;;;;;;;;;;;-10.02;50.18;96969.69;6313837;28;19928;-68
2024/01/26 00:21:29;;;;;;;;;;;;;;;-10.03;50.29;96975.56;6318813;28;19997;-67
2024/01/26 00:24:29;;;;;;;;;;;;;;;-10.18;50.48;96980.41;6318575;28;19924;-67
2024/01/26 00:27:34;;;;;;;;;;;;;;;-10.36;50.84;96978.41;6301783;28;19924;-69
2024/01/26 00:30:35;;;;;;;;;;;;;;;-10.51;50.60;96979.00;6318524;28;20347;-66
2024/01/26 00:33:41;;;;;;;;;;;;;;;-10.55;50.83;96978.91;6319331;28;20479;-67
2024/01/26 00:36:49;;;;;;;;;;;;;;;-10.66;50.96;96991.41;6319225;28;19928;-67
2024/01/26 00:39:56;;;;;;;;;;;;;;;-10.82;51.10;96992.78;6319282;28;19920;-68
2024/01/26 00:42:57;;;;;;;;;;;;;;;-10.87;51.07;97000.34;6318322;28;19924;-68
2024/01/26 00:46:00;;;;;;;;;;;;;;;-10.96;51.22;96995.03;6319032;28;19924;-66
2024/01/26 00:49:05;;;;;;;;;;;;;;;-11.00;51.44;96998.38;6319213;28;20307;-67
2024/01/26 00:52:09;;;;;;;;;;;;;;;-10.96;51.16;97002.66;6319097;28;19920;-67
2024/01/26 00:55:11;;;;;;;;;;;;;;;-10.91;51.47;96998.53;6317887;28;19924;-67
2024/01/26 00:58:14;;;;;;;;;;;;;;;-10.98;51.23;97001.81;6318937;28;20308;-67
2024/01/26 01:01:15;;;;;;;;;;;;;;;-11.04;51.44;97006.72;6318254;28;19924;-68
2024/01/26 01:04:16;;;;;;;;;;;;;;;-11.06;51.41;97003.31;6318846;28;19924;-67
2024/01/26 01:07:17;;;;;;;;;;;;;;;-11.15;51.52;97014.16;6318661;28;19947;-68
2024/01/26 01:10:21;;;;;;;;;;;;;;;-11.17;51.77;97009.84;6318777;28;19932;-68
2024/01/26 01:13:25;;;;;;;;;;;;;;;-11.19;51.46;97016.56;6318270;28;19920;-68
2024/01/26 01:16:32;;;;;;;;;;;;;;;-11.31;51.44;97018.00;6318822;28;19933;-68
2024/01/26 01:19:35;;;;;;;;;;;;;;;-11.46;51.80;97026.94;6319124;28;20057;-67
2024/01/26 01:22:41;;;;;;;;;;;;;;;-11.54;51.80;97036.94;6318811;28;19924;-67
2024/01/26 01:25:44;;;;;;;;;;;;;;;-11.71;52.06;97034.00;6318616;28;20404;-68
2024/01/26 01:28:47;;;;;;;;;;;;;;;-11.80;52.09;97038.88;6318602;28;19924;-68
2024/01/26 01:31:48;;;;;;;;;;;;;;;-11.93;52.23;97040.25;6318521;28;20286;-69
2024/01/26 01:34:50;;;;;;;;;;;;;;;-12.02;52.23;97050.19;6318627;28;19924;-67
2024/01/26 01:37:53;;;;;;;;;;;;;;;-12.16;52.43;97044.75;6322961;28;19924;-68
2024/01/26 01:40:54;;;;;;;;;;;;;;;-12.25;52.25;97041.97;6322631;28;20011;-67
2024/01/26 01:43:57;;;;;;;;;;;;;;;-12.35;52.51;97040.88;6323348;28;20397;-68
2024/01/26 01:47:01;;;;;;;;;;;;;;;-12.44;52.92;97045.69;6322650;28;19963;-68
2024/01/26 01:50:02;;;;;;;;;;;;;;;-12.56;52.49;97050.44;6322499;28;19931;-67
2024/01/26 01:53:07;;;;;;;;;;;;;;;-12.69;53.05;97055.13;6322982;28;19928;-68
2024/01/26 01:56:10;;;;;;;;;;;;;;;-12.78;52.92;97054.88;6322902;28;19924;-68
2024/01/26 01:59:11;;;;;;;;;;;;;;;-12.78;53.36;97059.97;6322838;28;19977;-67
2024/01/26 02:02:16;;;;;;;;;;;;;;;-12.80;53.45;97064.13;6322762;28;19920;-67
2024/01/26 02:05:19;;;;;;;;;;;;;;;-12.75;52.65;97069.31;6321902;28;19946;-67
2024/01/26 02:08:23;;;;;;;;;;;;;;;-12.75;52.96;97071.84;6322305;28;19920;-67
2024/01/26 02:11:24;;;;;;;;;;;;;;;-12.74;52.81;97076.94;6321839;28;20001;-67
2024/01/26 02:14:25;;;;;;;;;;;;;;;-12.73;52.86;97078.69;6322424;28;19919;-68
2024/01/26 02:17:33;;;;;;;;;;;;;;;-12.74;52.37;97076.94;6326197;28;19932;-68
2024/01/26 02:20:34;;;;;;;;;;;;;;;-12.77;52.81;97081.94;6347449;28;19923;-68
2024/01/26 02:23:41;;;;;;;;;;;;;;;-12.80;52.69;97091.13;6347444;28;19924;-68
2024/01/26 02:26:45;;;;;;;;;;;;;;;-12.86;52.51;97086.75;6347247;28;20022;-67
2024/01/26 02:29:46;;;;;;;;;;;;;;;-12.87;52.39;97085.03;6346375;28;19923;-67
2024/01/26 02:32:49;;;;;;;;;;;;;;;-12.92;53.04;97091.63;6347581;28;19924;-67
2024/01/26 02:35:53;;;;;;;;;;;;;;;-12.96;52.78;97095.75;6346362;28;19971;-68
2024/01/26 02:38:56;;;;;;;;;;;;;;;-13.01;53.05;97101.50;6347216;28;19923;-67
2024/01/26 02:42:00;;;;;;;;;;;;;;;-13.11;53.36;97096.13;6346745;28;20511;-67
2024/01/26 02:45:01;;;;;;;;;;;;;;;-13.20;53.29;97105.97;6347020;28;19923;-68
2024/01/26 02:48:02;;;;;;;;;;;;;;;-13.32;53.61;97105.66;6345530;28;19931;-68
2024/01/26 02:51:03;;;;;;;;;;;;;;;-13.42;53.84;97113.75;6346743;28;19924;-67
2024/01/26 02:54:04;;;;;;;;;;;;;;;-13.49;53.87;97112.72;6346337;28;19923;-67
2024/01/26 02:57:08;;;;;;;;;;;;;;;-13.52;53.70;97116.81;6346601;28;19939;-68
2024/01/26 03:00:09;;;;;;;;;;;;;;;-13.55;53.89;97116.72;6346119;28;19924;-68
2024/01/26 03:03:10;;;;;;;;;;;;;;;-13.54;53.93;97123.50;6345859;28;19930;-68
2024/01/26 03:06:16;;;;;;;;;;;;;;;-13.59;53.96;97119.13;6346528;28;20304;-68
2024/01/26 03:09:17;;;;;;;;;;;;;;;-13.62;53.87;97126.63;6346181;28;19968;-68
2024/01/26 03:12:20;;;;;;;;;;;;;;;-13.67;53.67;97133.22;6345945;28;19923;-67
2024/01/26 03:15:27;;;;;;;;;;;;;;;-13.74;53.53;97130.44;6346188;28;20552;-67
2024/01/26 03:18:30;;;;;;;;;;;;;;;-13.78;54.16;97134.53;6345949;28;19931;-67
2024/01/26 03:21:31;;;;;;;;;;;;;;;-13.82;54.44;97133.53;6346003;28;19945;-68
2024/01/26 03:24:34;;;;;;;;;;;;;;;-13.81;54.05;97136.97;6345942;28;20310;-68
2024/01/26 03:27:35;;;;;;;;;;;;;;;-13.84;53.98;97139.34;6327074;28;20014;-68
2024/01/26 03:30:40;;;;;;;;;;;;;;;-13.85;54.45;97152.81;6345807;28;19928;-68
2024/01/26 03:33:45;;;;;;;;;;;;;;;-13.90;54.16;97154.31;6345767;28;20514;-67
2024/01/26 03:36:47;;;;;;;;;;;;;;;-13.97;54.06;97157.47;6345538;28;19924;-68
2024/01/26 03:39:50;;;;;;;;;;;;;;;-14.04;54.02;97162.31;6345076;28;19923;-68
2024/01/26 03:42:51;;;;;;;;;;;;;;;-14.06;54.11;97158.88;6345098;28;20389;-68
2024/01/26 03:45:52;;;;;;;;;;;;;;;-14.05;53.81;97164.78;6344990;28;19988;-68
2024/01/26 03:48:56;;;;;;;;;;;;;;;-14.06;53.94;97163.91;6344293;28;19945;-68
2024/01/26 03:51:59;;;;;;;;;;;;;;;-14.09;53.63;97161.28;6345388;28;19923;-67
2024/01/26 03:55:06;;;;;;;;;;;;;;;-14.07;54.16;97164.72;6345001;28;19924;-67
2024/01/26 03:58:12;;;;;;;;;;;;;;;-14.08;53.96;97170.59;6310186;28;19923;-67
2024/01/26 04:01:18;;;;;;;;;;;;;;;-14.11;53.85;97179.75;6345321;28;19924;-68
2024/01/26 04:04:19;;;;;;;;;;;;;;;-14.16;53.61;97182.09;6345277;28;19931;-68
2024/01/26 04:07:25;;;;;;;;;;;;;;;-14.19;53.93;97186.19;6344768;28;19924;-68
2024/01/26 04:10:26;;;;;;;;;;;;;;;-14.20;53.98;97190.38;6344327;28;20387;-67
2024/01/26 04:13:30;;;;;;;;;;;;;;;-14.20;53.56;97185.34;6344399;28;20635;-68
2024/01/26 04:16:33;;;;;;;;;;;;;;;-14.17;53.72;97185.44;6344559;28;19945;-68
2024/01/26 04:19:36;;;;;;;;;;;;;;;-14.13;53.72;97191.47;6321697;28;19954;-69
2024/01/26 04:22:38;;;;;;;;;;;;;;;-14.09;53.90;97194.16;6319206;28;20461;-68
2024/01/26 04:25:39;;;;;;;;;;;;;;;-14.05;53.69;97195.97;6319090;28;19940;-68
2024/01/26 04:28:40;;;;;;;;;;;;;;;-13.97;53.47;97192.88;6318571;28;20441;-68
2024/01/26 04:31:44;;;;;;;;;;;;;;;-13.84;53.22;97197.53;6301755;28;19968;-68
2024/01/26 04:34:48;;;;;;;;;;;;;;;-13.70;53.40;97206.50;6319610;28;19924;-69
2024/01/26 04:37:48;;;;;;;;;;;;;;;-13.49;52.69;97198.75;6319062;28;19924;-68
2024/01/26 04:40:50;;;;;;;;;;;;;;;-13.34;51.88;97208.53;6319121;28;19931;-68
2024/01/26 04:43:51;;;;;;;;;;;;;;;-13.30;52.36;97205.31;6319140;28;19926;-68
2024/01/26 04:46:57;;;;;;;;;;;;;;;-13.29;52.01;97212.06;6318885;28;19928;-67
2024/01/26 04:50:00;;;;;;;;;;;;;;;-13.26;52.14;97211.31;6318968;28;19920;-68
2024/01/26 04:53:05;;;;;;;;;;;;;;;-13.24;52.44;97218.13;6318744;28;19924;-68
2024/01/26 04:56:09;;;;;;;;;;;;;;;-13.21;52.33;97223.28;6319241;28;20419;-67
2024/01/26 04:59:15;;;;;;;;;;;;;;;-13.16;51.96;97221.78;6318778;28;19924;-67
2024/01/26 05:02:16;;;;;;;;;;;;;;;-13.11;51.70;97225.28;6318698;28;19981;-67
2024/01/26 05:05:19;;;;;;;;;;;;;;;-13.04;51.72;97230.56;6318887;28;20298;-68
2024/01/26 05:08:25;;;;;;;;;;;;;;;-13.00;51.06;97239.97;6318655;28;19924;-67
2024/01/26 05:11:29;;;;;;;;;;;;;;;-12.87;51.47;97247.19;6322603;28;19924;-67
2024/01/26 05:14:37;;;;;;;;;;;;;;;-12.71;51.34;97248.50;6324255;28;19924;-68
2024/01/26 05:17:38;;;;;;;;;;;;;;;-12.59;50.85;97250.59;6322814;28;19935;-67
2024/01/26 05:20:42;;;;;;;;;;;;;;;-12.50;51.09;97248.31;6322958;28;19923;-67
2024/01/26 05:23:45;;;;;;;;;;;;;;;-12.32;50.92;97256.47;6323642;28;20274;-68
2024/01/26 05:26:49;;;;;;;;;;;;;;;-12.12;50.66;97258.75;6323723;28;20022;-67
2024/01/26 05:29:50;;;;;;;;;;;;;;;-11.92;50.66;97255.09;6323382;28;19924;-68
2024/01/26 05:32:54;;;;;;;;;;;;;;;-11.69;50.69;97254.88;6323259;28;20558;-67
2024/01/26 05:35:55;;;;;;;;;;;;;;;-11.48;49.88;97252.94;6322770;28;20420;-68
2024/01/26 05:38:59;;;;;;;;;;;;;;;-11.36;50.15;97263.41;6323487;28;20427;-67
2024/01/26 05:42:00;;;;;;;;;;;;;;;-11.22;49.96;97260.38;6323160;28;19931;-67
2024/01/26 05:45:04;;;;;;;;;;;;;;;-11.09;49.91;97257.34;6322194;28;20026;-68
2024/01/26 05:48:06;;;;;;;;;;;;;;;-10.93;49.95;97264.50;6322579;28;19924;-68
2024/01/26 05:51:07;;;;;;;;;;;;;;;-10.76;49.69;97261.53;6323193;28;20405;-67
2024/01/26 05:54:10;;;;;;;;;;;;;;;-10.59;49.51;97260.25;6321140;28;19924;-67
2024/01/26 05:57:16;;;;;;;;;;;;;;;-10.40;49.20;97264.09;6322962;28;19948;-68
2024/01/26 06:00:17;;;;;;;;;;;;;;;-10.20;49.32;97249.25;6322045;28;20443;-68
2024/01/26 06:03:23;;;;;;;;;;;;;;;-9.89;49.30;97255.00;6322948;28;19931;-68
2024/01/26 06:06:27;;;;;;;;;;;;;;;-9.49;48.59;97252.41;6322701;28;19924;-67
2024/01/26 06:09:28;;;;;;;;;;;;;;;-8.91;48.49;97256.88;6321891;28;20313;-69
2024/01/26 06:12:29;;;;;;;;;;;;;;;-8.15;47.04;97255.50;6322484;28;20034;-68
2024/01/26 06:15:34;;;;;;;;;;;;;;;-7.49;46.62;97258.06;6322404;28;19931;-68
2024/01/26 06:18:36;;;;;;;;;;;;;;;-6.91;45.77;97280.84;6321387;28;19924;-68
2024/01/26 06:21:37;;;;;;;;;;;;;;;-6.55;44.73;97270.97;6320961;28;20020;-66
2024/01/26 06:24:38;;;;;;;;;;;;;;;-6.52;45.42;97277.81;6322393;28;20396;-68
2024/01/26 06:27:39;;;;;;;;;;;;;;;-6.50;45.31;97278.69;6321682;28;19956;-67
2024/01/26 06:30:40;;;;;;;;;;;;;;;-6.52;45.28;97285.50;6321387;28;20337;-67
2024/01/26 06:33:44;;;;;;;;;;;;;;;-6.87;46.10;97283.47;6322053;28;19924;-68
2024/01/26 06:36:45;;;;;;;;;;;;;;;-7.12;45.81;97286.63;6321994;28;19935;-68
2024/01/26 06:39:51;;;;;;;;;;;;;;;-7.38;46.46;97278.66;6321411;28;20423;-68
2024/01/26 06:42:55;;;;;;;;;;;;;;;-7.44;46.74;97284.53;6321686;28;19924;-68
2024/01/26 06:45:59;;;;;;;;;;;;;;;-7.41;46.73;97297.38;6321679;28;19931;-68
2024/01/26 06:49:03;;;;;;;;;;;;;;;-7.40;46.50;97291.41;6321084;28;19931;-68
2024/01/26 06:52:08;;;;;;;;;;;;;;;-7.35;46.67;97294.88;6321652;28;19943;-68
2024/01/26 06:55:10;;;;;;;;;;;;;;;-7.03;46.75;97302.06;6321266;28;20302;-67
2024/01/26 06:58:17;;;;;;;;;;;;;;;-3.08;43.84;97301.66;6321546;28;19931;-68
2024/01/26 07:01:18;;;;;;;;;;;;;;;2.88;35.96;97300.00;6320988;28;19935;-68
2024/01/26 07:04:19;;;;;;;;;;;;;;;7.63;28.29;97297.34;6320740;28;19924;-69
2024/01/26 07:07:23;;;;;;;;;;;;;;;10.67;28.32;97292.03;6320679;28;19924;-69
2024/01/26 07:10:26;;;;;;;;;;;;;;;13.37;26.81;97295.91;6321220;28;20026;-68
2024/01/26 07:13:27;;;;;;;;;;;;;;;15.98;24.87;97297.72;6321257;28;19924;-68
2024/01/26 07:16:28;;;;;;;;;;;;;;;18.15;24.15;97299.84;6320922;28;20398;-69
2024/01/26 07:19:32;;;;;;;;;;;;;;;19.53;20.58;97297.00;6343434;28;19924;-69
2024/01/26 07:22:33;;;;;;;;;;;;;;;19.86;22.13;97294.84;6346134;28;19931;-68
2024/01/26 07:25:34;;;;;;;;;;;;;;;19.61;22.26;97302.47;6345090;28;19934;-68
2024/01/26 07:28:38;;;;;;;;;;;;;;;20.27;20.96;97306.00;6346049;28;19927;-68
2024/01/26 07:31:41;;;;;;;;;;;;;;;21.27;18.85;97300.47;6345930;28;19923;-68
2024/01/26 07:34:42;;;;;;;;;;;;;;;22.21;16.38;97288.16;6326563;28;20292;-69
2024/01/26 07:37:43;;;;;;;;;;;;;;;23.24;17.32;97291.34;6345615;28;19923;-67
2024/01/26 07:40:47;;;;;;;;;;;;;;;23.96;20.06;97296.75;6345942;28;19930;-68
2024/01/26 07:43:53;;;;;;;;;;;;;;;24.38;16.99;97295.59;6345417;28;19924;-68
2024/01/26 07:46:56;;;;;;;;;;;;;;;24.41;16.78;97291.69;6344805;28;19924;-68
2024/01/26 07:49:59;;;;;;;;;;;;;;;25.09;17.55;97301.69;6345541;28;19924;-67
2024/01/26 07:53:03;;;;;;;;;;;;;;;24.53;16.31;97293.00;6344229;28;19924;-69
2024/01/26 07:56:04;;;;;;;;;;;;;;;23.69;19.01;97294.47;6293436;28;19924;-68
2024/01/26 07:59:05;;;;;;;;;;;;;;;23.53;18.27;97284.59;6294177;28;20622;-68
2024/01/26 08:02:09;;;;;;;;;;;;;;;24.13;16.57;97291.34;6295059;28;19924;-68
2024/01/26 08:05:10;;;;;;;;;;;;;;;24.84;17.45;97292.13;6294472;28;19924;-69
2024/01/26 08:08:14;;;;;;;;;;;;;;;25.62;18.38;97293.69;6294477;28;19929;-68
2024/01/26 08:11:18;;;;;;;;;;;;;;;26.55;17.35;97296.84;6294196;28;19924;-68
2024/01/26 08:14:19;;;;;;;;;;;;;;;26.57;15.25;97286.69;6293381;28;20005;-69
2024/01/26 08:17:23;;;;;;;;;;;;;;;26.38;12.30;97288.94;6294509;28;19924;-68
2024/01/26 08:20:26;;;;;;;;;;;;;;;26.49;15.18;97289.47;6294302;28;20001;-70
2024/01/26 08:23:30;;;;;;;;;;;;;;;26.18;13.90;97301.31;6294152;28;19925;-69
2024/01/26 08:26:34;;;;;;;;;;;;;;;26.49;16.59;97289.47;6292769;28;19946;-67
2024/01/26 08:29:36;;;;;;;;;;;;;;;26.36;15.49;97280.19;6293932;28;19924;-69
2024/01/26 08:32:37;;;;;;;;;;;;;;;24.68;14.60;97285.00;6293443;28;19931;-69
2024/01/26 08:35:38;;;;;;;;;;;;;;;24.76;16.13;97286.81;6294372;28;19924;-70
2024/01/26 08:38:42;;;;;;;;;;;;;;;25.34;15.89;97284.53;6294398;28;19920;-69
2024/01/26 08:41:46;;;;;;;;;;;;;;;25.39;15.88;97291.03;6294221;28;19929;-69
2024/01/26 08:44:47;;;;;;;;;;;;;;;25.47;14.35;97280.19;6293648;28;19925;-69
2024/01/26 08:47:51;;;;;;;;;;;;;;;25.68;11.98;97270.56;6294177;28;19931;-69
2024/01/26 08:50:53;;;;;;;;;;;;;;;26.28;14.82;97277.63;6293196;28;19931;-69
2024/01/26 08:53:54;;;;;;;;;;;;;;;26.67;13.84;97287.22;6308163;28;20018;-69
2024/01/26 08:57:00;;;;;;;;;;;;;;;26.45;13.57;97277.41;6343276;28;20396;-68
2024/01/26 09:00:08;;;;;;;;;;;;;;;25.47;13.90;97290.94;6344353;28;19923;-69
2024/01/26 09:03:14;;;;;;;;;;;;;;;24.47;10.95;97285.66;6343964;28;19923;-68
2024/01/26 09:06:18;;;;;;;;;;;;;;;23.87;15.23;97283.53;6344002;28;19923;-68
2024/01/26 09:09:22;;;;;;;;;;;;;;;23.74;14.67;97287.59;6344360;28;19923;-69
2024/01/26 09:12:23;;;;;;;;;;;;;;;23.24;14.13;97277.06;6344138;28;19923;-68
2024/01/26 09:15:27;;;;;;;;;;;;;;;23.14;14.51;97279.09;6343959;28;19928;-69
2024/01/26 09:18:28;;;;;;;;;;;;;;;23.40;14.03;97278.91;6329881;28;20437;-69
2024/01/26 09:21:29;;;;;;;;;;;;;;;24.17;14.07;97287.25;6317927;28;19931;-69
2024/01/26 09:24:31;;;;;;;;;;;;;;;24.96;13.44;97297.94;6318451;28;20286;-68
2024/01/26 09:27:32;;;;;;;;;;;;;;;25.45;11.89;97282.25;6318628;28;19928;-69
2024/01/26 09:30:36;;;;;;;;;;;;;;;25.44;12.46;97291.31;6318614;28;19924;-69
2024/01/26 09:33:42;;;;;;;;;;;;;;;25.17;13.41;97291.94;6318629;28;19924;-68
2024/01/26 09:36:45;;;;;;;;;;;;;;;24.80;11.46;97299.75;6318203;28;19924;-69
2024/01/26 09:39:49;;;;;;;;;;;;;;;24.49;12.37;97294.38;6318148;28;20358;-71
2024/01/26 09:42:51;;;;;;;;;;;;;;;24.26;13.69;97297.00;6317422;28;20372;-71
2024/01/26 09:45:52;;;;;;;;;;;;;;;24.01;12.55;97292.72;6318288;28;19924;-68
2024/01/26 09:49:02;;;;;;;;;;;;;;;23.73;14.32;97288.59;6318151;28;19924;-68
2024/01/26 09:52:08;;;;;;;;;;;;;;;23.79;13.32;97289.78;6317942;28;19924;-70
2024/01/26 09:55:09;;;;;;;;;;;;;;;23.66;13.16;97290.25;6317103;28;19931;-68
2024/01/26 09:58:14;;;;;;;;;;;;;;;23.67;13.25;97286.59;6321145;28;20360;-68
2024/01/26 10:01:19;;;;;;;;;;;;;;;23.78;13.39;97288.09;6322433;28;19935;-70
2024/01/26 10:04:20;;;;;;;;;;;;;;;23.62;13.65;97283.56;6303430;28;20431;-69
2024/01/26 10:07:24;;;;;;;;;;;;;;;23.55;13.88;97293.31;6322418;28;19931;-69
2024/01/26 10:10:30;;;;;;;;;;;;;;;23.48;14.03;97286.97;6322921;28;19925;-68
2024/01/26 10:13:31;;;;;;;;;;;;;;;23.25;14.31;97290.34;6321822;28;19920;-68
2024/01/26 10:16:34;;;;;;;;;;;;;;;23.19;14.12;97288.34;6322615;28;19924;-67
2024/01/26 10:19:40;;;;;;;;;;;;;;;22.97;14.21;97283.63;6322509;28;20019;-68
2024/01/26 10:22:43;;;;;;;;;;;;;;;22.81;14.68;97290.63;6321108;28;20424;-68
2024/01/26 10:25:47;;;;;;;;;;;;;;;22.56;11.79;97289.78;6322341;28;20002;-68
2024/01/26 10:28:50;;;;;;;;;;;;;;;21.42;13.38;97297.25;6321480;28;20349;-68
2024/01/26 10:31:52;;;;;;;;;;;;;;;20.84;12.96;97294.09;6321419;28;20402;-69
2024/01/26 10:34:55;;;;;;;;;;;;;;;20.50;14.48;97307.28;6321163;28;19931;-69
2024/01/26 10:37:59;;;;;;;;;;;;;;;20.37;14.29;97306.78;6322176;28;19924;-69
2024/01/26 10:41:04;;;;;;;;;;;;;;;20.10;15.33;97295.16;6321454;28;19930;-68
2024/01/26 10:44:09;;;;;;;;;;;;;;;19.77;15.31;97293.06;6322144;28;19924;-68
2024/01/26 10:47:12;;;;;;;;;;;;;;;18.01;14.93;97297.56;6319996;28;19924;-69
2024/01/26 10:50:16;;;;;;;;;;;;;;;14.13;17.06;97292.28;6321529;28;19924;-68
2024/01/26 10:53:20;;;;;;;;;;;;;;;10.24;20.15;97298.84;6321568;28;19924;-68
2024/01/26 10:56:21;;;;;;;;;;;;;;;7.43;22.91;97305.25;6321647;28;19931;-68
2024/01/26 10:59:27;;;;;;;;;;;;;;;5.31;24.52;97298.25;6321629;28;19928;-68
2024/01/26 11:02:34;;;;;;;;;;;;;;;3.65;25.99;97296.91;6302829;28;19931;-68
2024/01/26 11:05:35;;;;;;;;;;;;;;;2.60;26.73;97305.06;6321286;28;19924;-68
2024/01/26 11:08:40;;;;;;;;;;;;;;;2.15;27.25;97300.19;6321254;28;19932;-69
2024/01/26 11:11:41;;;;;;;;;;;;;;;1.57;28.46;97293.75;6320926;28;19931;-68
2024/01/26 11:14:42;;;;;;;;;;;;;;;0.86;29.98;97299.56;6321062;28;19960;-68
2024/01/26 11:17:50;;;;;;;;;;;;;;;0.35;29.38;97310.00;6321131;28;19924;-68
2024/01/26 11:20:52;;;;;;;;;;;;;;;-0.09;28.45;97307.25;6302247;28;19924;-68
2024/01/26 11:24:11;;;;;;;;;;;;;;;-0.62;29.57;97306.34;6320675;28;19924;-68
2024/01/26 11:27:12;;;;;;;;;;;;;;;-1.11;29.25;97312.09;6320963;28;20022;-68
2024/01/26 11:30:21;;;;;;;;;;;;;;;-1.51;30.38;97312.53;6320741;28;19924;-69
2024/01/26 11:33:22;;;;;;;;;;;;;;;-1.87;29.92;97313.72;6320661;28;20019;-68
2024/01/26 11:36:31;;;;;;;;;;;;;;;-2.16;30.15;97321.72;6320353;28;19924;-69
2024/01/26 11:39:32;;;;;;;;;;;;;;;-2.52;31.51;97323.66;6285306;28;20297;-68
2024/01/26 11:42:33;;;;;;;;;;;;;;;-2.89;30.47;97329.00;6319591;28;19963;-69
2024/01/26 11:45:44;;;;;;;;;;;;;;;-3.07;32.13;97323.94;6320486;28;19935;-68
2024/01/26 11:48:49;;;;;;;;;;;;;;;-3.20;30.81;97318.84;6320208;28;19924;-68
2024/01/26 11:51:56;;;;;;;;;;;;;;;-3.45;31.64;97322.38;6319932;28;20011;-68
2024/01/26 11:55:00;;;;;;;;;;;;;;;-3.76;32.13;97321.56;6319071;28;19947;-68
2024/01/26 11:58:01;;;;;;;;;;;;;;;-4.03;32.52;97322.44;6319651;28;20010;-68
2024/01/26 12:01:02;;;;;;;;;;;;;;;-4.31;35.00;97327.56;6318596;28;19966;-68
2024/01/26 12:04:03;;;;;;;;;;;;;;;-4.50;33.98;97316.44;6301964;28;19924;-68
2024/01/26 12:07:04;;;;;;;;;;;;;;;-4.79;33.45;97324.03;6319017;28;19930;-68
2024/01/26 12:10:13;;;;;;;;;;;;;;;-4.96;34.61;97329.97;6319996;28;19957;-69
2024/01/26 12:13:19;;;;;;;;;;;;;;;-5.10;34.83;97323.94;6319731;28;20010;-69
2024/01/26 12:16:29;;;;;;;;;;;;;;;-5.25;34.80;97321.31;6319806;28;20352;-68
2024/01/26 12:19:32;;;;;;;;;;;;;;;-5.43;34.96;97320.38;6300586;28;19920;-69
2024/01/26 12:22:36;;;;;;;;;;;;;;;-5.60;34.97;97316.88;6319665;28;20352;-68
2024/01/26 12:25:39;;;;;;;;;;;;;;;-5.75;34.59;97322.75;6319437;28;20389;-69
2024/01/26 12:28:40;;;;;;;;;;;;;;;-5.90;36.49;97325.22;6319493;28;19924;-69
2024/01/26 12:31:41;;;;;;;;;;;;;;;-5.97;35.38;97332.06;6318418;28;19924;-68
2024/01/26 12:34:42;;;;;;;;;;;;;;;-6.08;36.40;97333.66;6318564;28;19924;-68
2024/01/26 12:37:43;;;;;;;;;;;;;;;-6.20;35.84;97329.31;6318145;28;19956;-68
2024/01/26 12:40:45;;;;;;;;;;;;;;;-6.36;36.89;97328.31;6319139;28;20421;-68
2024/01/26 12:43:46;;;;;;;;;;;;;;;-6.47;37.35;97335.03;6318164;28;19952;-69
2024/01/26 12:46:50;;;;;;;;;;;;;;;-6.47;36.83;97334.19;6319283;28;20470;-68
2024/01/26 12:49:56;;;;;;;;;;;;;;;-6.54;37.35;97338.38;6319030;28;19924;-68
2024/01/26 12:52:59;;;;;;;;;;;;;;;-6.61;38.64;97342.59;6318553;28;19920;-68
2024/01/26 12:56:01;;;;;;;;;;;;;;;-6.78;38.94;97344.97;6318173;28;20026;-69
2024/01/26 12:59:03;;;;;;;;;;;;;;;-6.77;38.86;97356.91;6318905;28;19924;-69
2024/01/26 13:02:07;;;;;;;;;;;;;;;-6.91;39.84;97363.56;6318859;28;20037;-68
2024/01/26 13:05:10;;;;;;;;;;;;;;;-6.78;41.05;97364.59;6318924;28;20286;-69
2024/01/26 13:08:14;;;;;;;;;;;;;;;-6.95;41.29;97366.94;6318636;28;20389;-68
2024/01/26 13:11:15;;;;;;;;;;;;;;;-7.12;41.50;97368.44;6299958;28;19935;-67
2024/01/26 13:14:16;;;;;;;;;;;;;;;-7.26;40.53;97371.69;6300116;28;20328;-69
2024/01/26 13:17:17;;;;;;;;;;;;;;;-7.28;41.57;97375.91;6317452;28;19924;-70
2024/01/26 13:20:21;;;;;;;;;;;;;;;-7.34;40.56;97380.94;6318620;28;19920;-69
2024/01/26 13:23:27;;;;;;;;;;;;;;;-7.42;42.87;97379.13;6300725;28;20425;-68
2024/01/26 13:26:28;;;;;;;;;;;;;;;-7.53;41.40;97394.31;6318351;28;19924;-68
2024/01/26 13:29:29;;;;;;;;;;;;;;;-7.55;41.38;97389.19;6318177;28;19931;-68
2024/01/26 13:32:30;;;;;;;;;;;;;;;-7.62;43.36;97386.50;6321919;28;20077;-68
2024/01/26 13:35:33;;;;;;;;;;;;;;;-7.65;42.44;97387.31;6323273;28;19950;-68
2024/01/26 13:38:34;;;;;;;;;;;;;;;-7.76;42.69;97383.75;6322390;28;19928;-69
2024/01/26 13:41:36;;;;;;;;;;;;;;;-7.86;41.83;97381.91;6322711;28;19981;-67
2024/01/26 13:44:39;;;;;;;;;;;;;;;-7.93;42.31;97375.81;6323307;28;19924;-68
2024/01/26 13:47:42;;;;;;;;;;;;;;;-8.03;42.40;97382.50;6323185;28;19924;-68
2024/01/26 13:50:48;;;;;;;;;;;;;;;-8.10;41.24;97382.38;6323047;28;19931;-68
2024/01/26 13:53:49;;;;;;;;;;;;;;;-8.11;41.79;97383.22;6321970;28;19924;-67
2024/01/26 13:56:59;;;;;;;;;;;;;;;-8.16;42.54;97389.09;6325273;28;19924;-68
2024/01/26 14:00:04;;;;;;;;;;;;;;;-8.28;41.99;97394.00;6322972;28;19930;-67
2024/01/26 14:03:08;;;;;;;;;;;;;;;-8.45;41.88;97395.44;6322546;28;19928;-68
2024/01/26 14:06:10;;;;;;;;;;;;;;;-8.60;42.65;97404.53;6322768;28;19924;-69
2024/01/26 14:09:12;;;;;;;;;;;;;;;-8.67;42.24;97404.38;6321862;28;19949;-68
2024/01/26 14:12:13;;;;;;;;;;;;;;;-8.72;42.32;97400.88;6322250;28;19943;-68
2024/01/26 14:15:19;;;;;;;;;;;;;;;-8.56;42.60;97412.22;6322888;28;19920;-69
2024/01/26 14:18:23;;;;;;;;;;;;;;;-8.52;43.52;97412.34;6321860;28;19931;-68
2024/01/26 14:21:26;;;;;;;;;;;;;;;-8.54;42.88;97413.97;6321888;28;19931;-68
2024/01/26 14:24:29;;;;;;;;;;;;;;;-8.59;43.04;97419.00;6321828;28;19920;-68
2024/01/26 14:27:30;;;;;;;;;;;;;;;-8.88;43.25;97415.03;6321246;28;19924;-68
2024/01/26 14:30:34;;;;;;;;;;;;;;;-9.16;43.50;97414.47;6322244;28;19924;-69
2024/01/26 14:33:37;;;;;;;;;;;;;;;-9.23;44.47;97425.34;6322166;28;20313;-69
2024/01/26 14:36:45;;;;;;;;;;;;;;;-9.30;44.56;97420.97;6321366;28;20027;-67
2024/01/26 14:39:49;;;;;;;;;;;;;;;-9.33;43.42;97420.91;6322386;28;19920;-68
2024/01/26 14:42:51;;;;;;;;;;;;;;;-9.37;43.54;97430.19;6321252;28;19928;-69
2024/01/26 14:45:54;;;;;;;;;;;;;;;-9.46;43.62;97424.00;6321317;28;19927;-70
2024/01/26 14:48:57;;;;;;;;;;;;;;;-9.56;44.34;97425.50;6321774;28;19924;-68
2024/01/26 14:51:59;;;;;;;;;;;;;;;-9.65;44.24;97432.91;6321387;28;20389;-68
2024/01/26 14:55:01;;;;;;;;;;;;;;;-9.73;43.74;97415.78;6294441;28;19924;-68
2024/01/26 14:58:02;;;;;;;;;;;;;;;-9.77;43.52;97418.19;6296642;28;20023;-68
2024/01/26 15:01:05;;;;;;;;;;;;;;;-9.76;44.43;97425.03;6296297;28;20041;-69
2024/01/26 15:04:09;;;;;;;;;;;;;;;-9.74;43.84;97428.47;6294665;28;19925;-68
2024/01/26 15:07:15;;;;;;;;;;;;;;;-9.59;43.57;97438.16;6296525;28;19925;-68
2024/01/26 15:10:20;;;;;;;;;;;;;;;-9.45;44.46;97435.91;6296571;28;19925;-68
2024/01/26 15:13:21;;;;;;;;;;;;;;;-9.55;44.25;97440.78;6296170;28;19955;-68
2024/01/26 15:16:26;;;;;;;;;;;;;;;-9.50;44.24;97454.50;6295965;28;19924;-68
2024/01/26 15:19:32;;;;;;;;;;;;;;;-9.55;43.96;97447.59;6295863;28;19924;-69
2024/01/26 15:22:35;;;;;;;;;;;;;;;-9.50;44.08;97441.78;6295841;28;19931;-70
2024/01/26 15:25:41;;;;;;;;;;;;;;;-9.34;44.14;97450.63;6296126;28;19928;-68
2024/01/26 15:28:42;;;;;;;;;;;;;;;-9.32;44.26;97454.03;6295534;28;20317;-68
2024/01/26 15:31:45;;;;;;;;;;;;;;;-9.28;44.95;97449.91;6295790;28;19947;-69
2024/01/26 15:34:50;;;;;;;;;;;;;;;-9.32;44.33;97448.94;6295193;28;19947;-68
2024/01/26 15:37:52;;;;;;;;;;;;;;;-9.21;44.61;97456.84;6295111;28;20315;-68
2024/01/26 15:40:56;;;;;;;;;;;;;;;-9.24;43.87;97454.22;6293509;28;19924;-68
2024/01/26 15:44:10;;;;;;;;;;;;;;;-9.27;44.33;97456.72;6294712;28;20301;-69
2024/01/26 15:47:12;;;;;;;;;;;;;;;-9.22;44.39;97451.72;6293587;28;20301;-67